Time;durP1;ratioP1;P1;durP2;ratioP2;P2;SDS_P1;SDS_P2;PMS_P1;PMS_P2;Temp;Humidity;BMP_temperature;BMP_pressure;BME280_temperature;BME280_humidity;BME280_pressure;Samples;Min_cycle;Max_cycle;Signal;HPM_P1;HPM_P2
2022/04/03 00:02:57;;;;;;;7.45;3.50;;;6.80;68.90;;;;;;10350731;28;20036;-60
2022/04/03 00:07:58;;;;;;;5.65;3.47;;;6.80;69.00;;;;;;10358029;28;20098;-60
2022/04/03 00:12:59;;;;;;;4.82;3.50;;;6.70;68.90;;;;;;10363259;28;20030;-63
2022/04/03 00:17:59;;;;;;;6.13;3.85;;;6.70;68.90;;;;;;10350720;28;20054;-62
2022/04/03 00:23:00;;;;;;;9.70;3.50;;;6.70;68.90;;;;;;10345199;28;20022;-60
2022/04/03 00:28:01;;;;;;;7.50;3.28;;;6.70;68.90;;;;;;10363064;28;20454;-63
2022/04/03 00:33:02;;;;;;;8.25;3.50;;;6.70;69.20;;;;;;10363302;28;20053;-61
2022/04/03 00:38:03;;;;;;;6.18;3.42;;;6.70;69.00;;;;;;10346115;28;20483;-62
2022/04/03 00:43:04;;;;;;;4.75;3.00;;;6.70;69.00;;;;;;10344709;28;20026;-62
2022/04/03 00:48:07;;;;;;;6.78;3.25;;;6.60;69.00;;;;;;10363953;28;20479;-63
2022/04/03 00:53:07;;;;;;;4.80;3.05;;;6.60;69.00;;;;;;10353466;28;20057;-61
2022/04/03 00:58:10;;;;;;;6.65;3.10;;;6.60;69.00;;;;;;10363431;28;20153;-62
2022/04/03 01:03:11;;;;;;;7.25;3.38;;;6.90;69.20;;;;;;10350410;28;20120;-63
2022/04/03 01:08:12;;;;;;;5.63;2.72;;;6.50;69.00;;;;;;10345750;28;20022;-63
2022/04/03 01:13:12;;;;;;;5.20;2.70;;;6.60;69.00;;;;;;10361883;28;20051;-61
2022/04/03 01:18:13;;;;;;;5.70;2.88;;;6.50;69.00;;;;;;10349313;28;20061;-60
2022/04/03 01:23:14;;;;;;;3.95;2.63;;;6.60;69.00;;;;;;10346139;28;20034;-63
2022/04/03 01:28:14;;;;;;;4.00;2.40;;;6.50;69.00;;;;;;10354288;28;20026;-61
2022/04/03 01:33:16;;;;;;;5.32;2.63;;;6.50;69.00;;;;;;10362654;28;20022;-63
2022/04/03 01:38:17;;;;;;;3.33;2.35;;;6.70;69.10;;;;;;10343602;28;20046;-62
2022/04/03 01:43:18;;;;;;;4.00;2.08;;;6.50;69.00;;;;;;10364331;28;20026;-62
2022/04/03 01:48:19;;;;;;;5.55;3.05;;;6.50;69.00;;;;;;10372023;28;20071;-61
2022/04/03 01:53:19;;;;;;;3.92;2.20;;;6.50;69.00;;;;;;10366102;28;20133;-60
2022/04/03 01:58:20;;;;;;;5.78;2.30;;;6.50;69.10;;;;;;10372990;28;20387;-63
2022/04/03 02:03:21;;;;;;;4.20;2.40;;;6.50;69.10;;;;;;10355613;28;20138;-61
2022/04/03 02:08:22;;;;;;;4.38;2.40;;;6.50;69.10;;;;;;10369685;28;20030;-61
2022/04/03 02:13:22;;;;;;;3.28;1.90;;;6.50;69.20;;;;;;10369061;28;20030;-61
2022/04/03 02:18:24;;;;;;;3.90;2.10;;;6.50;69.20;;;;;;10349121;28;20054;-63
2022/04/03 02:23:24;;;;;;;3.38;2.00;;;6.50;69.20;;;;;;10353180;28;20423;-61
2022/04/03 02:28:25;;;;;;;4.75;1.95;;;6.50;69.30;;;;;;10368438;28;20030;-61
2022/04/03 02:33:26;;;;;;;2.83;1.58;;;6.50;69.30;;;;;;10367932;28;20014;-62
2022/04/03 02:38:26;;;;;;;3.30;2.00;;;6.50;69.40;;;;;;10364470;28;20072;-63
2022/04/03 02:43:27;;;;;;;3.33;2.03;;;6.60;69.50;;;;;;10362657;28;20018;-63
2022/04/03 02:48:28;;;;;;;6.75;1.92;;;6.60;69.50;;;;;;10363087;28;20038;-61
2022/04/03 02:53:28;;;;;;;3.22;1.85;;;6.50;69.60;;;;;;10354577;28;20042;-64
2022/04/03 02:58:29;;;;;;;3.40;2.10;;;6.50;69.60;;;;;;10360459;28;20034;-64
2022/04/03 03:03:30;;;;;;;3.05;1.77;;;6.50;69.70;;;;;;10353568;28;20018;-64
2022/04/03 03:08:31;;;;;;;2.60;1.73;;;6.50;69.80;;;;;;10360116;28;20037;-64
2022/04/03 03:13:32;;;;;;;2.80;1.83;;;6.50;69.80;;;;;;10360654;28;20070;-64
2022/04/03 03:18:33;;;;;;;2.72;1.70;;;6.50;69.90;;;;;;10353494;28;20054;-62
2022/04/03 03:23:34;;;;;;;3.75;1.40;;;6.50;70.00;;;;;;10352269;28;20441;-59
2022/04/03 03:28:34;;;;;;;3.25;1.52;;;6.50;70.00;;;;;;10367579;28;20045;-65
2022/04/03 03:33:35;;;;;;;3.60;1.40;;;6.50;70.10;;;;;;10367301;28;20041;-64
2022/04/03 03:38:36;;;;;;;3.20;1.65;;;6.50;70.20;;;;;;10356324;28;20038;-63
2022/04/03 03:43:37;;;;;;;2.05;1.25;;;6.50;70.20;;;;;;10358607;28;20052;-65
2022/04/03 03:48:38;;;;;;;2.55;1.60;;;6.60;70.40;;;;;;10362515;28;20153;-62
2022/04/03 03:53:38;;;;;;;2.80;1.35;;;6.50;70.40;;;;;;10354522;28;20026;-62
2022/04/03 03:58:39;;;;;;;2.50;1.20;;;6.50;70.40;;;;;;10362025;28;20093;-63
2022/04/03 04:03:39;;;;;;;1.20;0.95;;;6.00;70.30;;;;;;10350594;28;20034;-64
2022/04/03 04:08:41;;;;;;;3.40;1.95;;;6.50;70.60;;;;;;10358471;28;20022;-64
2022/04/03 04:13:42;;;;;;;2.95;2.00;;;6.50;70.70;;;;;;10359519;28;20406;-65
2022/04/03 04:18:43;;;;;;;2.70;1.48;;;6.50;70.70;;;;;;10350982;28;20080;-64
2022/04/03 04:23:43;;;;;;;3.38;1.38;;;6.50;70.80;;;;;;10351448;28;20117;-64
2022/04/03 04:28:47;;;;;;;2.17;1.20;;;6.60;71.00;;;;;;10364517;28;20057;-65
2022/04/03 04:33:48;;;;;;;2.45;1.30;;;6.50;71.00;;;;;;10364643;28;20306;-63
2022/04/03 04:38:48;;;;;;;6.05;1.20;;;6.50;71.10;;;;;;10354184;28;20046;-63
2022/04/03 04:43:49;;;;;;;1.52;1.08;;;6.40;71.10;;;;;;10355935;28;20136;-64
2022/04/03 04:48:50;;;;;;;2.38;1.20;;;6.40;71.20;;;;;;10359425;28;20041;-62
2022/04/03 04:53:51;;;;;;;2.17;1.10;;;6.40;71.20;;;;;;10352521;28;20026;-63
2022/04/03 04:58:51;;;;;;;1.33;1.00;;;6.40;71.30;;;;;;10359407;28;20097;-62
2022/04/03 05:03:52;;;;;;;3.75;1.70;;;6.40;71.30;;;;;;10352353;28;20481;-64
2022/04/03 05:08:54;;;;;;;1.75;1.10;;;6.40;71.40;;;;;;10356937;28;20022;-64
2022/04/03 05:13:54;;;;;;;2.95;1.40;;;6.40;71.50;;;;;;10354794;28;20122;-66
2022/04/03 05:18:55;;;;;;;1.90;1.30;;;6.40;71.50;;;;;;10348632;28;20061;-64
2022/04/03 05:23:56;;;;;;;1.88;1.10;;;6.40;71.50;;;;;;10351003;28;20034;-65
2022/04/03 05:28:57;;;;;;;3.10;1.08;;;6.40;71.60;;;;;;10363498;28;20045;-62
2022/04/03 05:33:58;;;;;;;2.03;1.20;;;6.40;71.60;;;;;;10361760;28;20030;-64
2022/04/03 05:38:58;;;;;;;1.85;1.20;;;6.30;71.60;;;;;;10348338;28;20026;-63
2022/04/03 05:44:01;;;;;;;2.00;1.08;;;6.30;71.60;;;;;;10351742;28;20425;-62
2022/04/03 05:49:02;;;;;;;3.03;1.20;;;6.30;71.60;;;;;;10350813;28;20573;-64
2022/04/03 05:54:03;;;;;;;1.80;0.95;;;6.30;71.60;;;;;;10350707;28;20049;-63
2022/04/03 05:59:04;;;;;;;2.30;1.10;;;6.30;71.60;;;;;;10355499;28;20042;-62
2022/04/03 06:04:05;;;;;;;1.75;1.00;;;6.30;71.60;;;;;;10352063;28;20018;-61
2022/04/03 06:09:06;;;;;;;2.05;1.13;;;6.30;71.60;;;;;;10335338;28;20042;-61
2022/04/03 06:14:07;;;;;;;0.95;0.90;;;6.50;71.70;;;;;;10355027;28;20034;-64
2022/04/03 06:19:07;;;;;;;4.53;0.98;;;6.30;71.60;;;;;;10339290;28;20354;-62
2022/04/03 06:24:08;;;;;;;3.38;1.48;;;6.40;71.70;;;;;;10349090;28;20513;-65
2022/04/03 06:29:09;;;;;;;2.17;0.90;;;6.30;71.60;;;;;;10368650;28;20045;-61
2022/04/03 06:34:09;;;;;;;2.63;1.20;;;6.40;71.60;;;;;;10368445;28;20029;-61
2022/04/03 06:39:10;;;;;;;2.03;1.10;;;6.60;71.90;;;;;;10359249;28;20396;-64
2022/04/03 06:44:11;;;;;;;1.17;0.77;;;6.40;71.60;;;;;;10360670;28;20544;-62
2022/04/03 06:49:12;;;;;;;2.38;1.08;;;6.40;71.70;;;;;;10360865;28;20117;-62
2022/04/03 06:54:12;;;;;;;3.75;1.20;;;6.40;71.60;;;;;;10356612;28;20080;-64
2022/04/03 06:59:13;;;;;;;2.30;1.00;;;6.40;71.60;;;;;;10363711;28;20385;-63
2022/04/03 07:04:14;;;;;;;1.33;0.88;;;6.50;71.60;;;;;;10353983;28;20018;-63
2022/04/03 07:09:15;;;;;;;1.48;0.95;;;6.50;71.60;;;;;;10369207;28;20045;-64
2022/04/03 07:14:15;;;;;;;2.22;1.10;;;6.60;71.60;;;;;;10359908;28;20026;-64
2022/04/03 07:19:16;;;;;;;3.05;1.20;;;6.60;71.50;;;;;;10353879;28;20057;-62
2022/04/03 07:24:17;;;;;;;1.60;1.13;;;6.70;71.60;;;;;;10353696;28;20044;-62
2022/04/03 07:29:18;;;;;;;3.05;1.00;;;6.70;71.40;;;;;;10367682;28;20032;-64
2022/04/03 07:34:19;;;;;;;2.03;0.80;;;6.80;71.40;;;;;;10364516;28;20030;-61
2022/04/03 07:39:21;;;;;;;2.55;0.90;;;6.90;71.30;;;;;;10355566;28;20463;-60
2022/04/03 07:44:21;;;;;;;2.50;1.00;;;7.00;71.20;;;;;;10357197;28;20022;-62
2022/04/03 07:49:23;;;;;;;1.15;0.80;;;7.00;71.20;;;;;;10360055;28;20032;-63
2022/04/03 07:54:24;;;;;;;1.95;0.80;;;7.10;71.20;;;;;;10354429;28;20030;-63
2022/04/03 07:59:25;;;;;;;2.25;0.82;;;7.20;71.10;;;;;;10368627;28;20068;-61
2022/04/03 08:04:26;;;;;;;2.10;0.80;;;7.20;71.10;;;;;;10370519;28;20089;-64
2022/04/03 08:09:26;;;;;;;2.72;0.73;;;7.20;71.10;;;;;;10357310;28;20045;-64
2022/04/03 08:14:27;;;;;;;1.27;0.77;;;7.20;71.20;;;;;;10356652;28;20038;-65
2022/04/03 08:19:28;;;;;;;2.90;0.70;;;7.30;71.30;;;;;;10353659;28;20107;-68
2022/04/03 08:24:29;;;;;;;2.78;0.90;;;7.40;71.60;;;;;;10354343;28;20248;-69
2022/04/03 08:29:30;;;;;;;2.05;0.88;;;7.40;71.40;;;;;;10363491;28;20029;-63
2022/04/03 08:34:30;;;;;;;0.70;0.60;;;7.50;71.50;;;;;;10354820;28;20068;-66
2022/04/03 08:39:31;;;;;;;0.90;0.50;;;7.50;71.60;;;;;;10352456;28;20041;-61
2022/04/03 08:44:32;;;;;;;1.52;0.55;;;7.70;71.60;;;;;;10350559;28;20022;-67
2022/04/03 08:49:36;;;;;;;2.17;0.73;;;7.60;71.60;;;;;;10360244;28;20041;-64
2022/04/03 08:54:37;;;;;;;2.50;0.70;;;7.70;71.70;;;;;;10354089;28;20358;-65
2022/04/03 08:59:38;;;;;;;2.05;0.70;;;7.70;71.70;;;;;;10356886;28;20038;-62
2022/04/03 09:04:39;;;;;;;0.70;0.50;;;7.70;71.70;;;;;;10362284;28;20518;-62
2022/04/03 09:09:40;;;;;;;1.73;0.57;;;7.70;71.70;;;;;;10342264;28;20025;-61
2022/04/03 09:14:46;;;;;;;0.95;0.52;;;7.80;71.70;;;;;;10352905;28;20041;-61
2022/04/03 09:19:49;;;;;;;0.65;0.47;;;7.80;71.60;;;;;;10365761;28;20050;-64
2022/04/03 09:24:50;;;;;;;1.52;0.50;;;7.80;72.40;;;;;;10356212;28;20214;-64
2022/04/03 09:30:02;;;;;;;1.10;0.40;;;7.90;71.80;;;;;;10352267;28;20164;-63
2022/04/03 09:35:03;;;;;;;1.40;0.50;;;7.90;72.10;;;;;;10355053;28;20029;-67
2022/04/03 09:40:04;;;;;;;1.17;0.57;;;7.90;71.80;;;;;;10356175;28;20050;-65
2022/04/03 09:45:05;;;;;;;2.42;0.52;;;7.90;72.00;;;;;;10336335;28;20030;-64
2022/04/03 09:50:06;;;;;;;0.38;0.28;;;7.90;72.00;;;;;;10364684;28;20030;-65
2022/04/03 09:55:15;;;;;;;0.55;0.43;;;7.90;72.00;;;;;;10350233;28;20827;-64
2022/04/03 10:00:33;;;;;;;0.40;0.30;;;8.00;71.90;;;;;;10356075;28;20053;-64
2022/04/03 10:05:34;;;;;;;1.95;0.52;;;8.20;71.90;;;;;;10361856;28;20833;-64
2022/04/03 10:10:36;;;;;;;1.65;0.30;;;8.30;71.80;;;;;;10368624;28;20029;-62
2022/04/03 10:15:36;;;;;;;0.88;0.45;;;8.30;71.80;;;;;;10362270;28;20641;-63
2022/04/03 10:20:38;;;;;;;0.60;0.40;;;8.30;71.80;;;;;;10350859;28;20060;-62
2022/04/03 10:25:44;;;;;;;0.55;0.30;;;8.40;71.80;;;;;;10366029;28;20076;-62
2022/04/03 10:30:45;;;;;;;0.50;0.30;;;8.50;71.70;;;;;;10360406;28;20141;-64
2022/04/03 10:36:01;;;;;;;0.35;0.30;;;8.50;71.60;;;;;;10356841;28;20034;-61
2022/04/03 10:41:02;;;;;;;0.75;0.50;;;8.50;71.60;;;;;;10363164;28;20025;-65
2022/04/03 10:46:03;;;;;;;2.70;0.47;;;8.60;71.80;;;;;;10349971;28;20041;-59
2022/04/03 10:51:08;;;;;;;1.25;0.40;;;8.60;71.80;;;;;;10357172;28;20042;-62
2022/04/03 10:56:20;;;;;;;2.28;0.63;;;8.70;71.80;;;;;;10360180;28;20493;-61
2022/04/03 11:01:30;;;;;;;0.73;0.50;;;8.60;72.00;;;;;;10360444;28;20026;-63
2022/04/03 11:06:33;;;;;;;0.93;0.50;;;8.70;72.20;;;;;;10350850;28;20060;-61
2022/04/03 11:11:43;;;;;;;4.20;0.70;;;8.60;72.40;;;;;;10366877;28;20113;-64
2022/04/03 11:16:52;;;;;;;2.17;0.63;;;8.80;72.70;;;;;;10360351;28;20040;-62
2022/04/03 11:21:55;;;;;;;2.55;0.50;;;9.00;73.10;;;;;;10352940;28;20045;-63
2022/04/03 11:26:57;;;;;;;0.45;0.43;;;9.00;72.40;;;;;;10355539;28;20400;-63
2022/04/03 11:31:57;;;;;;;0.90;0.55;;;9.10;72.40;;;;;;10366238;28;20040;-65
2022/04/03 11:37:04;;;;;;;1.60;0.60;;;9.20;72.50;;;;;;10353829;28;20048;-63
2022/04/03 11:42:08;;;;;;;1.20;0.65;;;9.20;72.40;;;;;;10361931;28;20129;-64
2022/04/03 11:47:19;;;;;;;3.25;0.77;;;9.10;72.70;;;;;;10353864;28;20018;-64
2022/04/03 11:52:21;;;;;;;1.17;0.77;;;9.20;73.60;;;;;;10358922;28;20502;-65
2022/04/03 11:57:22;;;;;;;2.72;0.70;;;9.20;73.40;;;;;;10361890;28;20057;-64
2022/04/03 12:02:22;;;;;;;2.85;0.73;;;9.20;73.50;;;;;;10351494;28;20026;-65
2022/04/03 12:07:23;;;;;;;2.65;0.90;;;9.20;73.50;;;;;;10355613;28;20431;-66
2022/04/03 12:12:24;;;;;;;0.70;0.50;;;9.90;74.00;;;;;;10363855;28;20080;-65
2022/04/03 12:17:25;;;;;;;2.45;1.40;;;9.30;73.60;;;;;;10331240;28;20492;-65
2022/04/03 12:22:27;;;;;;;2.03;0.75;;;9.40;73.80;;;;;;10352085;28;20054;-66
2022/04/03 12:27:33;;;;;;;4.07;0.90;;;9.50;74.20;;;;;;10356021;28;20051;-70
2022/04/03 12:32:36;;;;;;;2.42;0.77;;;9.50;74.40;;;;;;10348776;28;20034;-67
2022/04/03 12:37:40;;;;;;;4.10;0.90;;;9.50;74.40;;;;;;10340903;28;20038;-65
2022/04/03 12:42:42;;;;;;;2.10;0.65;;;9.60;74.70;;;;;;10350635;28;20125;-66
2022/04/03 12:47:55;;;;;;;2.58;0.82;;;9.60;74.90;;;;;;10363662;28;20077;-66
2022/04/03 12:53:01;;;;;;;3.08;0.80;;;9.50;75.10;;;;;;10349909;28;20030;-65
2022/04/03 13:03:27;;;;;;;2.70;0.60;;;9.40;75.00;;;;;;10357900;28;20064;-66
2022/04/03 13:08:39;;;;;;;1.73;0.68;;;9.40;75.00;;;;;;10355541;28;20498;-65
2022/04/03 13:13:41;;;;;;;1.10;0.60;;;9.40;75.00;;;;;;10356976;28;20025;-65
2022/04/03 13:18:42;;;;;;;2.80;0.77;;;9.40;75.10;;;;;;10347757;28;20042;-65
2022/04/03 13:23:42;;;;;;;3.22;0.68;;;9.30;75.00;;;;;;10349928;28;20040;-67
2022/04/03 13:28:43;;;;;;;1.23;0.70;;;9.30;75.00;;;;;;10361867;28;20491;-66
2022/04/03 13:33:44;;;;;;;1.52;0.70;;;9.30;75.00;;;;;;10349956;28;20026;-63
2022/04/03 13:38:45;;;;;;;2.85;0.82;;;9.40;75.10;;;;;;10350512;28;20045;-66
2022/04/03 13:43:49;;;;;;;2.25;0.93;;;9.40;75.10;;;;;;10372749;28;20447;-65
2022/04/03 13:48:50;;;;;;;0.68;0.40;;;9.50;74.90;;;;;;10371027;28;20041;-65
2022/04/03 13:53:50;;;;;;;1.10;0.60;;;9.60;74.70;;;;;;10359581;28;20108;-65
2022/04/03 13:58:51;;;;;;;0.73;0.70;;;9.80;74.40;;;;;;10370188;28;20046;-66
2022/04/03 14:03:52;;;;;;;1.15;0.60;;;10.00;73.90;;;;;;10372305;28;20035;-63
2022/04/03 14:08:53;;;;;;;1.15;0.57;;;10.10;73.50;;;;;;10349640;28;20327;-65
2022/04/03 14:13:54;;;;;;;3.15;0.73;;;10.20;73.30;;;;;;10361895;28;20042;-66
2022/04/03 14:18:55;;;;;;;3.00;0.63;;;10.20;73.40;;;;;;10372226;28;20492;-65
2022/04/03 14:23:56;;;;;;;0.90;0.63;;;10.30;73.40;;;;;;10360864;28;20021;-66
2022/04/03 14:28:57;;;;;;;2.08;0.98;;;10.40;73.20;;;;;;10362593;28;20528;-66
2022/04/03 14:33:58;;;;;;;0.75;0.60;;;10.50;73.20;;;;;;10368745;28;20457;-66
2022/04/03 14:38:59;;;;;;;1.55;0.55;;;10.60;72.90;;;;;;10352826;28;20088;-66
2022/04/03 14:44:02;;;;;;;4.53;1.00;;;10.70;72.80;;;;;;10360222;28;20448;-66
2022/04/03 14:49:03;;;;;;;0.82;0.50;;;10.70;72.70;;;;;;10366003;28;20034;-64
2022/04/03 14:54:04;;;;;;;0.55;0.52;;;10.80;72.60;;;;;;10367983;28;20381;-66
2022/04/03 14:59:05;;;;;;;1.90;0.52;;;11.00;72.40;;;;;;10356364;28;20038;-66
2022/04/03 15:04:07;;;;;;;2.58;0.77;;;11.10;72.30;;;;;;10361220;28;20084;-66
2022/04/03 15:09:07;;;;;;;1.67;0.47;;;11.20;72.20;;;;;;10357420;28;20042;-64
2022/04/03 15:14:08;;;;;;;0.90;0.50;;;11.10;72.20;;;;;;10360108;28;20042;-66
2022/04/03 15:19:09;;;;;;;2.10;0.45;;;11.20;72.10;;;;;;10354266;28;20591;-65
2022/04/03 15:24:10;;;;;;;2.00;0.70;;;11.30;72.10;;;;;;10355987;28;20038;-65
2022/04/03 15:29:11;;;;;;;0.63;0.50;;;11.30;72.20;;;;;;10366123;28;20068;-66
2022/04/03 15:34:12;;;;;;;0.85;0.40;;;11.30;72.40;;;;;;10365256;28;20488;-66
2022/04/03 15:39:13;;;;;;;1.00;0.40;;;11.30;72.10;;;;;;10344327;28;20046;-68
2022/04/03 15:44:14;;;;;;;1.55;0.30;;;11.50;72.10;;;;;;10323244;28;20501;-70
2022/04/03 15:49:14;;;;;;;0.77;0.40;;;11.60;71.90;;;;;;10344363;28;20129;-67
2022/04/03 15:54:18;;;;;;;1.25;0.63;;;11.50;71.90;;;;;;10348797;28;20033;-60
2022/04/03 15:59:20;;;;;;;0.82;0.50;;;11.40;72.10;;;;;;10348896;28;20045;-66
2022/04/03 16:04:22;;;;;;;0.73;0.50;;;11.40;72.30;;;;;;10345302;28;20026;-67
2022/04/03 16:09:23;;;;;;;2.55;0.40;;;11.30;72.40;;;;;;10328939;28;20124;-69
2022/04/03 16:14:23;;;;;;;1.40;0.50;;;11.30;72.50;;;;;;10330449;28;20481;-68
2022/04/03 16:19:24;;;;;;;1.35;0.60;;;11.30;72.60;;;;;;10342113;28;20057;-67
2022/04/03 16:24:25;;;;;;;1.63;0.40;;;11.20;72.60;;;;;;10351520;28;20109;-65
2022/04/03 16:29:25;;;;;;;1.20;0.60;;;11.10;72.50;;;;;;10343897;28;20485;-65
2022/04/03 16:34:26;;;;;;;1.40;0.60;;;11.20;72.60;;;;;;10332284;28;20500;-66
2022/04/03 16:39:27;;;;;;;1.05;0.55;;;11.10;72.50;;;;;;10346555;28;20056;-66
2022/04/03 16:44:28;;;;;;;2.92;0.40;;;11.20;72.50;;;;;;10348355;28;20029;-65
2022/04/03 16:49:29;;;;;;;2.03;0.52;;;11.10;72.50;;;;;;10350286;28;20642;-63
2022/04/03 16:54:30;;;;;;;0.75;0.50;;;11.10;72.40;;;;;;10352344;28;20074;-66
2022/04/03 16:59:30;;;;;;;2.58;0.50;;;11.00;72.40;;;;;;10348657;28;20043;-63
2022/04/03 17:04:31;;;;;;;1.15;0.50;;;11.00;72.40;;;;;;10363362;28;20388;-64
2022/04/03 17:09:33;;;;;;;1.75;0.55;;;11.00;72.40;;;;;;10355574;28;20500;-62
2022/04/03 17:14:34;;;;;;;1.65;0.60;;;10.90;72.50;;;;;;10359380;28;20034;-65
2022/04/03 17:19:36;;;;;;;1.35;0.60;;;10.90;72.60;;;;;;10331056;28;20329;-63
2022/04/03 17:24:38;;;;;;;1.13;0.60;;;10.80;72.60;;;;;;10346595;28;20030;-66
2022/04/03 17:29:42;;;;;;;1.98;0.60;;;10.80;72.70;;;;;;10344416;28;20030;-70
2022/04/03 17:34:43;;;;;;;0.80;0.47;;;10.70;72.80;;;;;;10354557;28;20026;-68
2022/04/03 17:39:45;;;;;;;2.92;0.68;;;10.60;72.60;;;;;;10354825;28;20022;-64
2022/04/03 17:44:45;;;;;;;1.88;0.80;;;10.60;72.70;;;;;;10350528;28;20032;-63
2022/04/03 17:49:46;;;;;;;1.13;0.60;;;10.60;72.90;;;;;;10337851;28;20392;-63
2022/04/03 17:54:47;;;;;;;0.90;0.70;;;10.50;72.90;;;;;;10330191;28;20019;-66
2022/04/03 17:59:47;;;;;;;1.27;0.65;;;10.50;72.90;;;;;;10341391;28;20481;-72
2022/04/03 18:04:50;;;;;;;1.13;0.77;;;10.40;73.40;;;;;;10334930;28;20041;-71
2022/04/03 18:09:51;;;;;;;0.88;0.70;;;10.50;73.40;;;;;;10347889;28;20416;-64
2022/04/03 18:14:52;;;;;;;2.28;0.85;;;10.40;73.20;;;;;;10341896;28;20105;-68
2022/04/03 18:19:53;;;;;;;2.08;1.00;;;10.30;73.90;;;;;;10342901;28;20049;-71
2022/04/03 18:24:56;;;;;;;1.48;0.63;;;10.30;73.40;;;;;;10349316;28;20078;-66
2022/04/03 18:29:57;;;;;;;0.75;0.65;;;10.30;73.50;;;;;;10353575;28;20042;-70
2022/04/03 18:34:58;;;;;;;1.55;1.10;;;10.20;74.10;;;;;;10356788;28;20030;-65
2022/04/03 18:39:59;;;;;;;1.73;0.90;;;10.20;73.60;;;;;;10360148;28;20034;-63
2022/04/03 18:45:00;;;;;;;1.70;0.90;;;10.10;73.60;;;;;;10370064;28;20022;-62
2022/04/03 18:50:01;;;;;;;1.65;0.75;;;10.10;73.70;;;;;;10357009;28;20041;-69
2022/04/03 18:55:02;;;;;;;3.33;1.40;;;10.00;73.70;;;;;;10339845;28;20026;-66
2022/04/03 19:00:04;;;;;;;3.47;0.75;;;10.00;73.80;;;;;;10361403;28;20103;-59
2022/04/03 19:05:05;;;;;;;1.33;0.88;;;10.00;73.90;;;;;;10342003;28;20038;-67
2022/04/03 19:10:09;;;;;;;1.42;1.05;;;9.90;73.80;;;;;;10333226;28;20145;-71
2022/04/03 19:15:10;;;;;;;2.03;1.17;;;9.90;74.50;;;;;;10345394;28;20491;-63
2022/04/03 19:20:13;;;;;;;1.10;1.00;;;9.90;73.90;;;;;;10343977;28;20113;-70
2022/04/03 19:25:15;;;;;;;1.80;1.00;;;9.90;74.00;;;;;;10338351;28;20034;-69
2022/04/03 19:30:18;;;;;;;2.10;1.20;;;9.80;74.00;;;;;;10354017;28;20116;-70
2022/04/03 19:35:20;;;;;;;1.42;1.00;;;9.80;74.00;;;;;;10353857;28;20110;-69
2022/04/03 19:40:22;;;;;;;2.10;0.98;;;9.80;74.00;;;;;;10361852;28;20045;-61
2022/04/03 19:45:25;;;;;;;2.05;1.55;;;9.80;74.10;;;;;;10353056;28;20040;-70
2022/04/03 19:50:26;;;;;;;2.53;1.00;;;9.70;74.00;;;;;;10341905;28;20102;-69
2022/04/03 19:55:27;;;;;;;1.33;1.05;;;9.70;74.10;;;;;;10337320;28;20026;-69
2022/04/03 20:00:28;;;;;;;2.03;1.42;;;9.70;74.20;;;;;;10350652;28;20098;-70
2022/04/03 20:05:30;;;;;;;4.90;1.08;;;9.70;74.50;;;;;;10344659;28;20091;-69
2022/04/03 20:10:31;;;;;;;3.72;1.52;;;9.60;74.30;;;;;;10361451;28;20455;-65
2022/04/03 20:15:33;;;;;;;1.23;0.90;;;9.60;74.40;;;;;;10367745;28;20026;-67
2022/04/03 20:20:34;;;;;;;3.58;1.27;;;9.60;74.40;;;;;;10366749;28;20141;-69
2022/04/03 20:25:35;;;;;;;1.80;0.90;;;9.50;74.50;;;;;;10374368;28;20022;-65
2022/04/03 20:30:38;;;;;;;2.83;0.88;;;9.50;74.60;;;;;;10371916;28;20070;-61
2022/04/03 20:35:39;;;;;;;2.88;1.20;;;9.50;74.60;;;;;;10364556;28;20061;-62
2022/04/03 20:40:40;;;;;;;1.65;0.95;;;9.50;74.70;;;;;;10366884;28;20136;-67
2022/04/03 20:45:41;;;;;;;2.17;0.90;;;9.40;74.70;;;;;;10365096;28;20096;-65
2022/04/03 20:50:42;;;;;;;2.22;0.95;;;9.40;74.80;;;;;;10360605;28;20037;-61
2022/04/03 20:55:44;;;;;;;1.33;0.73;;;9.30;74.80;;;;;;10367433;28;20087;-66
2022/04/03 21:00:45;;;;;;;2.63;1.10;;;9.30;74.90;;;;;;10353111;28;20034;-66
2022/04/03 21:05:46;;;;;;;1.63;0.80;;;9.30;74.90;;;;;;10352953;28;20018;-69
2022/04/03 21:10:46;;;;;;;2.63;1.25;;;9.30;75.00;;;;;;10336002;28;20026;-65
2022/04/03 21:15:47;;;;;;;1.63;0.80;;;9.30;75.00;;;;;;10333660;28;20101;-69
2022/04/03 21:20:48;;;;;;;0.90;0.63;;;9.30;75.00;;;;;;10342699;28;20484;-70
2022/04/03 21:25:49;;;;;;;1.52;0.73;;;9.30;75.10;;;;;;10332733;28;20056;-65
2022/04/03 21:30:49;;;;;;;3.17;0.80;;;9.20;75.00;;;;;;10345033;28;20093;-60
2022/04/03 21:35:51;;;;;;;1.23;0.70;;;9.20;75.10;;;;;;10352780;28;20042;-67
2022/04/03 21:40:52;;;;;;;2.42;1.15;;;9.20;75.10;;;;;;10356324;28;20064;-66
2022/04/03 21:45:53;;;;;;;0.90;0.70;;;9.20;75.20;;;;;;10337134;28;20042;-69
2022/04/03 21:50:54;;;;;;;1.00;0.70;;;9.10;75.20;;;;;;10347985;28;20029;-69
2022/04/03 21:55:55;;;;;;;2.65;1.35;;;9.10;75.20;;;;;;10345052;28;20030;-64
2022/04/03 22:01:05;;;;;;;2.40;0.75;;;9.10;75.30;;;;;;10364284;28;20034;-65
2022/04/03 22:06:06;;;;;;;2.53;0.70;;;9.30;75.50;;;;;;10362096;28;20041;-64
2022/04/03 22:11:08;;;;;;;1.10;0.77;;;9.10;75.40;;;;;;10363703;28;20022;-68
2022/04/03 22:16:09;;;;;;;2.15;0.98;;;9.00;75.40;;;;;;10354434;28;20177;-64
2022/04/03 22:21:10;;;;;;;1.23;0.70;;;9.00;75.40;;;;;;10352625;28;20126;-61
2022/04/03 22:26:10;;;;;;;1.90;0.88;;;9.10;75.60;;;;;;10361196;28;20236;-63
2022/04/03 22:31:12;;;;;;;1.92;1.05;;;8.90;75.50;;;;;;10352669;28;20058;-65
2022/04/03 22:36:12;;;;;;;1.15;0.70;;;8.90;75.50;;;;;;10352534;28;20092;-65
2022/04/03 22:41:13;;;;;;;5.13;0.90;;;8.90;75.50;;;;;;10366501;28;20446;-62
2022/04/03 22:46:14;;;;;;;1.70;0.90;;;8.90;75.50;;;;;;10352453;28;20393;-62
2022/04/03 22:51:16;;;;;;;1.05;0.63;;;8.90;75.60;;;;;;10368931;28;20207;-69
2022/04/03 22:56:17;;;;;;;1.15;0.98;;;8.70;75.50;;;;;;10356280;28;20045;-66
2022/04/03 23:01:18;;;;;;;2.45;0.77;;;9.00;75.70;;;;;;10366981;28;20129;-61
2022/04/03 23:06:19;;;;;;;1.75;0.90;;;8.80;75.50;;;;;;10365890;28;20030;-64
2022/04/03 23:11:19;;;;;;;2.22;1.20;;;8.80;75.60;;;;;;10367476;28;20053;-65
2022/04/03 23:16:20;;;;;;;2.72;1.02;;;8.70;75.60;;;;;;10362665;28;20066;-71
2022/04/03 23:21:21;;;;;;;2.20;1.25;;;8.70;75.60;;;;;;10360481;28;20050;-64
2022/04/03 23:26:22;;;;;;;1.65;1.10;;;8.70;76.20;;;;;;10366028;28;20053;-69
2022/04/03 23:31:25;;;;;;;3.08;1.30;;;8.70;75.70;;;;;;10367079;28;20029;-68
2022/04/03 23:36:25;;;;;;;1.40;1.10;;;8.70;75.70;;;;;;10363474;28;20077;-68
2022/04/03 23:41:26;;;;;;;4.03;1.42;;;8.60;75.70;;;;;;10362053;28;20025;-67
2022/04/03 23:46:29;;;;;;;1.58;1.10;;;8.70;75.70;;;;;;10358041;28;20045;-67
2022/04/03 23:51:30;;;;;;;2.63;1.33;;;8.50;75.60;;;;;;10361749;28;20495;-66
2022/04/03 23:56:31;;;;;;;4.35;2.33;;;8.70;75.80;;;;;;10358667;28;20184;-70
